Time;durP1;ratioP1;P1;durP2;ratioP2;P2;SDS_P1;SDS_P2;PMS_P1;PMS_P2;Temp;Humidity;BMP_temperature;BMP_pressure;BME280_temperature;BME280_humidity;BME280_pressure;Samples;Min_cycle;Max_cycle;Signal;HPM_P1;HPM_P2
2023/10/13 00:02:01;;;;;;;13.60;5.13;;;13.60;99.90;;;;;;5054062;28;20047;-47
2023/10/13 00:04:27;;;;;;;6.47;3.88;;;13.60;99.90;;;;;;5055001;28;20358;-48
2023/10/13 00:06:53;;;;;;;8.07;3.95;;;13.60;99.90;;;;;;5054882;28;20091;-50
2023/10/13 00:09:24;;;;;;;12.38;3.92;;;13.60;99.90;;;;;;5054703;28;20025;-50
2023/10/13 00:11:52;;;;;;;9.45;3.50;;;13.60;99.90;;;;;;5054952;28;20110;-50
2023/10/13 00:14:18;;;;;;;6.82;3.28;;;13.60;99.90;;;;;;5054725;28;20040;-51
2023/10/13 00:19:44;;;;;;;10.65;3.15;;;13.60;99.90;;;;;;5053949;28;20510;-50
2023/10/13 00:22:10;;;;;;;9.38;3.50;;;13.60;99.90;;;;;;5054953;28;20028;-51
2023/10/13 00:24:43;;;;;;;7.60;3.88;;;13.50;99.90;;;;;;5053556;28;20033;-51
2023/10/13 00:27:24;;;;;;;7.80;3.13;;;13.50;99.90;;;;;;5055037;28;20524;-51
2023/10/13 00:29:50;;;;;;;9.10;3.88;;;13.40;99.90;;;;;;5054807;28;20462;-48
2023/10/13 00:32:22;;;;;;;8.75;4.05;;;13.40;99.90;;;;;;5054371;28;20064;-48
2023/10/13 00:34:50;;;;;;;9.38;3.78;;;13.30;99.90;;;;;;5054724;28;20031;-48
2023/10/13 00:37:27;;;;;;;6.32;3.75;;;13.30;99.90;;;;;;5054591;28;20025;-49
2023/10/13 00:39:56;;;;;;;9.60;4.25;;;13.20;99.90;;;;;;5054772;28;20323;-49
2023/10/13 00:42:33;;;;;;;9.25;5.15;;;13.20;99.90;;;;;;5053702;28;20063;-47
2023/10/13 00:45:00;;;;;;;6.38;4.90;;;13.10;99.90;;;;;;5053579;28;20036;-47
2023/10/13 00:47:47;;;;;;;9.10;5.07;;;13.10;99.90;;;;;;5055628;28;20021;-48
2023/10/13 00:50:15;;;;;;;9.45;4.68;;;13.10;99.90;;;;;;5058788;28;20024;-47
2023/10/13 00:52:41;;;;;;;8.57;4.18;;;13.10;99.90;;;;;;5058368;28;20029;-47
2023/10/13 00:55:09;;;;;;;7.18;4.57;;;13.10;99.90;;;;;;5040678;28;20048;-49
2023/10/13 00:57:35;;;;;;;7.75;4.15;;;13.20;99.90;;;;;;5058604;28;20025;-48
2023/10/13 01:00:12;;;;;;;8.63;4.53;;;13.20;99.90;;;;;;5057775;28;20032;-50
2023/10/13 01:02:38;;;;;;;8.05;4.65;;;13.30;99.90;;;;;;5058400;28;20031;-50
2023/10/13 01:05:04;;;;;;;8.07;4.22;;;13.30;99.90;;;;;;5058248;28;20501;-51
2023/10/13 01:07:30;;;;;;;8.20;4.55;;;13.30;99.90;;;;;;5057263;28;20103;-50
2023/10/13 01:09:56;;;;;;;9.13;4.75;;;13.30;99.90;;;;;;5058279;28;20083;-50
2023/10/13 01:12:25;;;;;;;10.45;4.97;;;13.40;99.90;;;;;;5058637;28;20044;-49
2023/10/13 01:14:51;;;;;;;8.80;4.78;;;13.40;99.90;;;;;;5056951;28;20070;-49
2023/10/13 01:17:18;;;;;;;8.48;4.43;;;13.40;99.90;;;;;;5058102;28;20032;-50
2023/10/13 01:19:45;;;;;;;7.57;4.70;;;13.40;99.90;;;;;;5058203;28;20033;-50
2023/10/13 01:22:11;;;;;;;7.35;4.43;;;13.40;99.90;;;;;;5058114;28;20039;-50
2023/10/13 01:24:37;;;;;;;9.30;4.93;;;13.40;99.90;;;;;;5056830;28;20021;-49
2023/10/13 01:27:14;;;;;;;10.43;4.40;;;13.40;99.90;;;;;;5057700;28;20047;-50
2023/10/13 01:29:40;;;;;;;7.20;4.18;;;13.40;99.90;;;;;;5058116;28;20044;-50
2023/10/13 01:32:06;;;;;;;9.45;4.22;;;13.30;99.90;;;;;;5056466;28;20033;-50
2023/10/13 01:34:33;;;;;;;7.25;4.03;;;13.30;99.90;;;;;;5057479;28;20032;-50
2023/10/13 01:37:05;;;;;;;9.05;3.97;;;13.30;99.90;;;;;;5057621;28;20458;-50
2023/10/13 01:39:31;;;;;;;8.00;3.85;;;13.30;99.90;;;;;;5056643;28;20029;-51
2023/10/13 01:41:56;;;;;;;10.27;3.85;;;13.30;99.90;;;;;;5057694;28;20434;-50
2023/10/13 01:44:30;;;;;;;7.28;3.85;;;13.30;99.90;;;;;;5057636;28;20048;-47
2023/10/13 01:46:59;;;;;;;6.88;3.67;;;13.30;99.90;;;;;;5057655;28;20108;-48
2023/10/13 01:49:25;;;;;;;9.38;4.40;;;13.30;99.90;;;;;;5057464;28;20029;-48
2023/10/13 01:51:51;;;;;;;8.68;3.65;;;13.40;99.90;;;;;;5057489;28;20040;-48
2023/10/13 01:54:17;;;;;;;9.73;3.75;;;13.40;99.90;;;;;;5057029;28;20037;-50
2023/10/13 01:56:43;;;;;;;8.80;3.60;;;13.40;99.90;;;;;;5057397;28;20338;-49
2023/10/13 01:59:12;;;;;;;8.18;3.78;;;13.40;99.90;;;;;;5055963;28;20025;-50
2023/10/13 02:01:38;;;;;;;4.97;3.08;;;13.30;99.90;;;;;;5057411;28;20065;-49
2023/10/13 02:04:04;;;;;;;7.22;3.50;;;13.30;99.90;;;;;;5057310;28;20029;-47
2023/10/13 02:06:33;;;;;;;7.28;3.42;;;13.30;99.90;;;;;;5056782;28;20055;-50
2023/10/13 02:11:41;;;;;;;10.57;3.88;;;13.30;99.90;;;;;;5057215;28;20033;-51
2023/10/13 02:14:07;;;;;;;6.95;3.25;;;13.40;99.90;;;;;;5056007;28;20036;-51
2023/10/13 02:16:32;;;;;;;9.32;3.22;;;13.40;99.90;;;;;;5056982;28;20108;-50
2023/10/13 02:19:03;;;;;;;8.68;3.33;;;13.40;99.90;;;;;;5056893;28;20033;-50
2023/10/13 02:21:34;;;;;;;8.60;3.10;;;13.30;99.90;;;;;;5057035;28;20053;-51
2023/10/13 02:23:59;;;;;;;4.72;2.95;;;13.40;99.90;;;;;;5056895;28;20037;-50
2023/10/13 02:26:32;;;;;;;8.57;3.00;;;13.40;99.90;;;;;;5056603;28;20044;-51
2023/10/13 02:29:04;;;;;;;7.25;2.90;;;13.30;99.90;;;;;;5056535;28;20025;-50
2023/10/13 02:31:30;;;;;;;6.70;3.20;;;13.40;99.90;;;;;;5056860;28;20120;-50
2023/10/13 02:33:56;;;;;;;6.18;2.80;;;13.40;99.90;;;;;;5056679;28;20108;-51
2023/10/13 02:36:23;;;;;;;7.10;2.85;;;13.50;99.90;;;;;;5055555;28;20119;-48
2023/10/13 02:38:52;;;;;;;5.43;2.83;;;13.40;99.90;;;;;;5056688;28;20025;-51
2023/10/13 02:41:28;;;;;;;6.57;2.70;;;13.40;99.90;;;;;;5056660;28;20017;-51
2023/10/13 02:43:55;;;;;;;6.82;2.78;;;13.40;99.90;;;;;;5056634;28;20115;-50
2023/10/13 02:46:28;;;;;;;5.97;2.70;;;13.40;99.90;;;;;;5055517;28;20495;-51
2023/10/13 02:48:55;;;;;;;5.40;2.90;;;13.40;99.90;;;;;;5056149;28;20048;-51
2023/10/13 02:51:36;;;;;;;6.75;2.90;;;13.40;99.90;;;;;;5056447;28;20046;-49
2023/10/13 02:54:03;;;;;;;6.00;2.50;;;13.40;99.90;;;;;;5056377;28;20037;-51
2023/10/13 02:56:33;;;;;;;6.18;2.85;;;13.40;99.90;;;;;;5056088;28;20412;-51
2023/10/13 02:59:05;;;;;;;5.95;2.70;;;13.40;99.90;;;;;;5056136;28;20112;-51
2023/10/13 03:01:34;;;;;;;5.18;2.65;;;13.40;99.90;;;;;;5056256;28;20056;-50
2023/10/13 03:04:00;;;;;;;7.35;2.65;;;13.50;99.90;;;;;;5054797;28;20044;-49
2023/10/13 03:06:32;;;;;;;4.68;2.53;;;13.40;99.90;;;;;;5055940;28;20053;-51
2023/10/13 03:09:13;;;;;;;5.63;2.50;;;13.40;99.90;;;;;;5056028;28;20037;-51
2023/10/13 03:11:46;;;;;;;5.07;2.80;;;13.50;99.90;;;;;;5054965;28;20025;-51
2023/10/13 03:14:23;;;;;;;3.63;2.47;;;13.50;99.90;;;;;;5055989;28;20032;-50
2023/10/13 03:17:18;;;;;;;3.88;2.30;;;13.50;99.90;;;;;;5055507;28;20055;-49
2023/10/13 03:19:49;;;;;;;4.18;2.38;;;13.50;99.90;;;;;;5055723;28;20405;-51
2023/10/13 03:22:16;;;;;;;3.70;2.25;;;13.50;99.90;;;;;;5055409;28;20454;-50
2023/10/13 03:24:46;;;;;;;5.53;2.40;;;13.50;99.90;;;;;;5055759;28;20033;-51
2023/10/13 03:27:22;;;;;;;;;;;13.50;99.90;;;;;;5056256;28;20043;-51
2023/10/13 03:29:54;;;;;;;5.07;2.47;;;13.60;99.90;;;;;;5055773;28;19913;-51
2023/10/13 03:32:20;;;;;;;5.65;2.40;;;13.60;99.90;;;;;;5055576;28;20041;-49
2023/10/13 03:34:54;;;;;;;4.25;2.10;;;13.60;99.90;;;;;;5055587;28;20037;-50
2023/10/13 03:43:11;;;;;;;3.30;1.95;;;13.60;99.90;;;;;;5054516;28;20112;-49
2023/10/13 03:45:39;;;;;;;4.47;2.00;;;13.60;99.90;;;;;;5054297;28;20044;-48
2023/10/13 03:51:10;;;;;;;3.47;2.40;;;13.60;99.90;;;;;;5055474;28;20049;-50
2023/10/13 03:53:54;;;;;;;4.60;1.88;;;13.60;99.90;;;;;;5054239;28;20037;-49
2023/10/13 03:56:27;;;;;;;4.55;1.88;;;13.70;99.90;;;;;;5055137;28;20033;-48
2023/10/13 03:58:54;;;;;;;3.55;1.73;;;13.60;99.90;;;;;;5054977;28;20021;-48
2023/10/13 04:01:31;;;;;;;3.53;1.90;;;13.70;99.90;;;;;;5055070;28;20055;-51
2023/10/13 04:04:09;;;;;;;4.82;2.35;;;13.70;99.90;;;;;;5053664;28;20058;-48
2023/10/13 04:17:15;;;;;;;3.80;2.20;;;13.80;99.90;;;;;;5054341;28;20051;-52
2023/10/13 04:36:16;;;;;;;4.35;2.20;;;13.80;99.90;;;;;;5053389;28;20420;-50
2023/10/13 04:39:29;;;;;;;10.07;4.20;;;13.80;99.90;;;;;;5054656;28;20072;-51
2023/10/13 04:41:41;;;;;;;22.92;11.30;;;13.80;99.90;;;;;;5057590;28;20048;-52
2023/10/13 04:54:54;;;;;;;7.03;2.10;;;13.80;99.90;;;;;;5054198;28;20477;-48
2023/10/13 06:30:12;;;;;;;2.90;1.70;;;13.60;99.90;;;;;;5056873;28;20090;-50
2023/10/13 06:32:39;;;;;;;2.53;1.40;;;13.60;99.90;;;;;;5056676;28;20033;-49
2023/10/13 06:35:18;;;;;;;3.55;1.50;;;13.60;99.90;;;;;;5055616;28;20029;-51
2023/10/13 06:37:44;;;;;;;3.83;1.60;;;13.60;99.90;;;;;;5055821;28;20112;-51
2023/10/13 06:40:33;;;;;;;4.07;1.65;;;13.60;99.90;;;;;;5056060;28;20060;-51
2023/10/13 06:43:12;;;;;;;3.10;1.52;;;13.60;99.90;;;;;;5056356;28;20040;-50
2023/10/13 06:45:38;;;;;;;5.05;3.28;;;13.60;99.90;;;;;;5055867;28;20039;-51
2023/10/13 06:48:05;;;;;;;5.18;2.40;;;13.60;99.90;;;;;;5056421;28;20058;-49
2023/10/13 06:50:39;;;;;;;4.15;1.80;;;13.60;99.90;;;;;;5056279;28;20029;-50
2023/10/13 06:53:04;;;;;;;4.68;2.40;;;13.60;99.90;;;;;;5056085;28;20037;-50
2023/10/13 06:55:35;;;;;;;8.07;2.47;;;13.60;99.90;;;;;;5056190;28;20354;-50
2023/10/13 06:58:01;;;;;;;8.50;2.30;;;13.60;99.90;;;;;;5056295;28;20089;-47
2023/10/13 07:00:34;;;;;;;7.95;2.80;;;13.50;99.90;;;;;;5055977;28;20094;-51
2023/10/13 07:03:07;;;;;;;6.55;2.03;;;13.50;99.90;;;;;;5056148;28;20032;-49
2023/10/13 07:05:39;;;;;;;6.03;2.10;;;13.50;99.90;;;;;;5055817;28;20045;-52
2023/10/13 07:08:06;;;;;;;3.30;1.77;;;13.50;99.90;;;;;;5055897;28;20048;-49
2023/10/13 07:10:35;;;;;;;2.83;1.70;;;13.50;99.90;;;;;;5055676;28;20565;-51
2023/10/13 07:13:04;;;;;;;3.47;1.60;;;13.60;99.90;;;;;;5054787;28;20033;-51
2023/10/13 07:15:30;;;;;;;2.45;1.58;;;13.60;99.90;;;;;;5054568;28;20542;-49
2023/10/13 07:17:59;;;;;;;4.00;2.30;;;13.60;99.90;;;;;;5054600;28;20069;-51
2023/10/13 07:23:17;;;;;;;4.05;3.65;;;13.60;99.90;;;;;;5055617;28;20458;-50
2023/10/13 07:25:44;;;;;;;6.50;2.65;;;13.60;99.90;;;;;;5054921;28;20041;-50
2023/10/13 07:28:10;;;;;;;3.33;2.60;;;13.60;99.90;;;;;;5054230;28;20048;-48
2023/10/13 07:31:11;;;;;;;2.90;2.60;;;13.60;99.90;;;;;;5055307;28;20029;-48
2023/10/13 07:33:29;;;;;;;5.10;2.47;;;13.60;99.90;;;;;;5055887;28;20098;-52
2023/10/13 07:36:27;;;;;;;2.80;1.50;;;13.60;99.90;;;;;;5055212;28;20025;-52
2023/10/13 07:41:37;;;;;;;2.40;1.38;;;13.60;99.90;;;;;;5055201;28;20116;-50
2023/10/13 07:44:07;;;;;;;3.88;1.90;;;13.60;99.90;;;;;;5037456;28;20037;-48
2023/10/13 07:46:35;;;;;;;3.58;1.80;;;13.50;99.90;;;;;;5054790;28;20036;-49
2023/10/13 07:49:09;;;;;;;3.42;1.83;;;13.40;99.90;;;;;;5054910;28;20044;-53
2023/10/13 07:51:44;;;;;;;5.47;2.90;;;13.40;99.90;;;;;;5055059;28;20349;-49
2023/10/13 07:54:21;;;;;;;5.68;2.10;;;13.40;99.90;;;;;;5054922;28;20041;-47
2023/10/13 07:56:47;;;;;;;3.58;1.98;;;13.40;99.90;;;;;;5053825;28;20025;-47
2023/10/13 07:59:14;;;;;;;5.07;2.10;;;13.30;99.90;;;;;;5054760;28;20037;-51
2023/10/13 08:01:43;;;;;;;4.97;1.83;;;13.30;99.90;;;;;;5053755;28;20084;-49
2023/10/13 08:04:12;;;;;;;7.15;1.90;;;13.20;99.90;;;;;;5055100;28;20438;-47
2023/10/13 08:06:40;;;;;;;3.40;1.73;;;13.20;99.90;;;;;;5054736;28;20385;-47
2023/10/13 08:09:07;;;;;;;3.72;1.70;;;13.20;99.90;;;;;;5054633;28;20297;-48
2023/10/13 08:11:37;;;;;;;4.45;1.60;;;13.20;99.90;;;;;;5055092;28;20468;-49
2023/10/13 08:14:17;;;;;;;2.97;1.60;;;13.20;99.90;;;;;;5054661;28;20033;-48
2023/10/13 08:16:57;;;;;;;4.15;1.52;;;13.20;99.90;;;;;;5039187;28;20366;-47
2023/10/13 08:48:08;;;;;;;2.40;1.23;;;13.20;99.90;;;;;;5054452;28;20175;-52
2023/10/13 08:53:52;;;;;;;1.65;0.95;;;13.10;99.90;;;;;;5054082;28;20033;-48
2023/10/13 08:56:18;;;;;;;1.77;1.05;;;13.10;99.90;;;;;;5052907;28;20343;-48
2023/10/13 09:06:57;;;;;;;2.10;1.20;;;13.10;99.90;;;;;;5053930;28;20416;-50
2023/10/13 09:12:14;;;;;;;4.68;1.30;;;13.10;99.90;;;;;;5057929;28;20068;-48
2023/10/13 09:14:44;;;;;;;5.97;1.10;;;13.10;99.90;;;;;;5039766;28;20083;-49
2023/10/13 09:17:12;;;;;;;3.42;1.35;;;13.10;99.90;;;;;;5057507;28;20032;-50
2023/10/13 09:19:48;;;;;;;4.40;2.80;;;13.20;99.90;;;;;;5057738;28;20033;-47
2023/10/13 09:22:42;;;;;;;4.43;1.30;;;13.10;99.90;;;;;;5056408;28;20077;-48
2023/10/13 09:25:13;;;;;;;3.20;1.48;;;13.30;99.90;;;;;;5056328;28;20052;-50
2023/10/13 09:27:39;;;;;;;5.63;1.70;;;13.30;99.90;;;;;;5057927;28;20030;-49
2023/10/13 09:30:22;;;;;;;1.67;1.00;;;13.30;99.90;;;;;;5057646;28;20042;-48
2023/10/13 09:33:01;;;;;;;3.40;1.10;;;13.40;99.90;;;;;;5056433;28;20109;-49
2023/10/13 09:35:27;;;;;;;4.53;1.63;;;13.40;99.90;;;;;;5056563;28;20025;-48
2023/10/13 09:37:56;;;;;;;3.42;2.17;;;13.50;99.90;;;;;;5057559;28;20024;-49
2023/10/13 09:40:25;;;;;;;2.20;1.07;;;13.50;99.90;;;;;;5056283;28;20037;-51
2023/10/13 09:42:52;;;;;;;7.97;1.60;;;13.50;99.90;;;;;;5057289;28;20032;-48
2023/10/13 09:45:18;;;;;;;5.70;2.50;;;13.60;99.90;;;;;;5057112;28;20017;-52
2023/10/13 09:47:47;;;;;;;2.42;1.30;;;13.60;99.90;;;;;;5056134;28;20033;-50
2023/10/13 09:50:24;;;;;;;5.03;2.95;;;13.60;99.90;;;;;;5023657;28;20061;-51
2023/10/13 09:52:51;;;;;;;4.97;1.10;;;13.50;99.90;;;;;;5057227;28;20343;-49
2023/10/13 09:55:30;;;;;;;4.80;1.35;;;13.60;99.90;;;;;;5055962;28;20021;-52
2023/10/13 09:58:09;;;;;;;2.78;0.90;;;13.70;99.90;;;;;;5040010;28;20082;-50
2023/10/13 10:03:14;;;;;;;4.50;1.30;;;13.60;99.90;;;;;;5056000;28;20071;-53
2023/10/13 10:05:41;;;;;;;6.78;1.85;;;13.60;99.90;;;;;;5055894;28;20052;-52
2023/10/13 10:08:10;;;;;;;4.88;1.50;;;13.40;99.90;;;;;;5056983;28;20315;-50
2023/10/13 10:10:56;;;;;;;6.50;1.75;;;13.40;99.90;;;;;;5055737;28;20362;-49
2023/10/13 10:13:34;;;;;;;6.82;1.60;;;13.40;99.90;;;;;;5039637;28;20056;-51
2023/10/13 10:16:05;;;;;;;7.07;1.92;;;13.40;99.90;;;;;;5055777;28;20029;-50
2023/10/13 10:18:31;;;;;;;6.03;1.55;;;13.30;99.90;;;;;;5055378;28;20036;-47
2023/10/13 10:21:07;;;;;;;3.35;1.00;;;13.30;99.90;;;;;;5054676;28;20033;-49
2023/10/13 10:23:39;;;;;;;4.85;2.33;;;13.40;99.90;;;;;;5056724;28;20331;-50
2023/10/13 10:26:16;;;;;;;7.35;2.03;;;13.40;99.90;;;;;;5056647;28;20111;-50
2023/10/13 10:28:43;;;;;;;6.65;1.50;;;13.50;99.90;;;;;;5055685;28;20511;-49
2023/10/13 10:31:12;;;;;;;12.93;11.65;;;13.50;99.90;;;;;;5055860;28;20029;-53
2023/10/13 10:33:41;;;;;;;7.75;2.22;;;13.60;99.90;;;;;;5055930;28;20044;-50
2023/10/13 10:36:12;;;;;;;29.17;16.65;;;13.60;99.90;;;;;;5055356;28;20039;-50
2023/10/13 10:38:38;;;;;;;6.28;2.00;;;13.60;99.90;;;;;;5056061;28;20075;-49
2023/10/13 10:41:07;;;;;;;4.93;1.55;;;13.60;99.90;;;;;;5056069;28;20025;-50
2023/10/13 10:43:47;;;;;;;4.57;1.77;;;13.50;99.90;;;;;;5054553;28;20510;-52
2023/10/13 10:46:40;;;;;;;10.57;1.75;;;13.50;99.90;;;;;;5055316;28;20098;-51
2023/10/13 10:49:08;;;;;;;6.40;1.80;;;13.40;99.90;;;;;;5054678;28;20029;-50
2023/10/13 10:51:43;;;;;;;7.18;3.70;;;13.30;99.90;;;;;;5055931;28;20036;-53
2023/10/13 10:54:18;;;;;;;7.07;1.95;;;13.30;99.90;;;;;;5039560;28;20048;-51
2023/10/13 10:56:44;;;;;;;8.23;2.33;;;13.30;99.90;;;;;;5054678;28;20020;-51
2023/10/13 10:59:18;;;;;;;10.90;1.75;;;13.40;99.90;;;;;;5055939;28;20029;-51
2023/10/13 11:01:50;;;;;;;9.40;2.17;;;13.30;99.90;;;;;;5056010;28;20478;-48
2023/10/13 11:04:24;;;;;;;7.40;1.75;;;13.30;99.90;;;;;;5055323;28;20025;-51
2023/10/13 11:07:00;;;;;;;8.85;1.80;;;13.40;99.90;;;;;;5054154;28;20053;-50
2023/10/13 11:12:03;;;;;;;8.95;2.65;;;13.50;99.90;;;;;;5054536;28;20073;-48
2023/10/13 11:14:29;;;;;;;5.88;1.30;;;13.60;99.90;;;;;;5054271;28;20416;-47
2023/10/13 11:17:05;;;;;;;6.35;2.33;;;13.50;99.90;;;;;;5055306;28;20025;-48
2023/10/13 11:19:43;;;;;;;10.63;2.10;;;13.40;99.90;;;;;;5055488;28;20037;-51
2023/10/13 11:25:29;;;;;;;6.28;2.20;;;13.10;99.90;;;;;;5073092;28;20090;-47
2023/10/13 11:28:06;;;;;;;12.68;2.10;;;13.10;99.90;;;;;;5072755;28;20033;-48
2023/10/13 11:33:07;;;;;;;8.98;3.28;;;13.00;99.90;;;;;;5054999;28;20036;-48
2023/10/13 11:35:55;;;;;;;14.43;2.30;;;12.90;99.90;;;;;;5054605;28;20044;-47
2023/10/13 11:38:29;;;;;;;9.15;2.30;;;12.90;99.90;;;;;;5054804;28;20033;-48
2023/10/13 11:46:50;;;;;;;16.27;3.20;;;13.00;99.90;;;;;;5054876;28;20124;-47
2023/10/13 11:51:44;;;;;;;12.38;2.50;;;13.00;99.90;;;;;;5053627;28;20107;-47
2023/10/13 11:54:12;;;;;;;11.25;2.45;;;13.10;99.90;;;;;;5054550;28;20041;-47
2023/10/13 11:56:38;;;;;;;12.23;2.33;;;13.10;99.90;;;;;;5053167;28;20531;-47
2023/10/13 11:59:05;;;;;;;11.30;1.95;;;13.20;99.90;;;;;;5054436;28;20036;-48
2023/10/13 12:07:20;;;;;;;11.82;2.35;;;13.10;99.90;;;;;;5071749;28;20086;-47
2023/10/13 12:12:21;;;;;;;12.90;2.63;;;13.30;99.90;;;;;;5053768;28;20055;-47
2023/10/13 12:14:55;;;;;;;20.95;3.20;;;13.30;99.90;;;;;;5054643;28;20041;-48
2023/10/13 12:17:36;;;;;;;17.25;3.17;;;13.50;99.90;;;;;;5054704;28;20036;-48
2023/10/13 12:20:06;;;;;;;15.40;2.38;;;13.90;99.90;;;;;;5054506;28;20474;-47
2023/10/13 12:22:51;;;;;;;;;;;13.90;99.90;;;;;;5055004;28;20358;-48
2023/10/13 12:25:34;;;;;;;15.32;3.20;;;14.00;99.90;;;;;;5053551;28;19932;-48
2023/10/13 12:28:12;;;;;;;14.55;3.15;;;14.10;99.90;;;;;;5054529;28;20033;-48
2023/10/13 12:30:54;;;;;;;18.67;3.30;;;14.30;99.90;;;;;;5038399;28;20040;-51
2023/10/13 12:33:25;;;;;;;12.27;2.70;;;14.60;99.90;;;;;;5054122;28;20036;-51
2023/10/13 12:52:16;;;;;;;11.88;2.70;;;18.50;92.20;;;;;;5057358;28;20147;-52
2023/10/13 12:54:54;;;;;;;10.85;2.20;;;18.70;92.50;;;;;;5057949;28;20036;-50
2023/10/13 12:57:22;;;;;;;11.10;2.25;;;19.00;83.90;;;;;;5057942;28;20101;-52
2023/10/13 12:59:49;;;;;;;11.00;1.95;;;18.80;78.90;;;;;;5058186;28;20029;-52
2023/10/13 13:02:15;;;;;;;13.07;2.72;;;18.70;81.70;;;;;;5057611;28;20370;-52
2023/10/13 13:04:51;;;;;;;8.48;2.00;;;19.00;83.70;;;;;;5058229;28;20029;-52
2023/10/13 13:07:16;;;;;;;14.50;2.65;;;19.30;80.70;;;;;;5057909;28;20041;-52
2023/10/13 13:09:42;;;;;;;10.15;2.53;;;19.30;77.40;;;;;;5057539;28;20476;-53
2023/10/13 13:12:12;;;;;;;12.00;2.40;;;19.10;78.50;;;;;;5057101;28;20044;-52
2023/10/13 13:14:40;;;;;;;12.60;3.33;;;19.20;79.70;;;;;;5057525;28;20311;-52
2023/10/13 13:17:06;;;;;;;15.05;2.50;;;19.20;73.70;;;;;;5057618;28;20052;-51
2023/10/13 13:19:36;;;;;;;12.23;3.00;;;18.90;70.80;;;;;;5056382;28;20122;-52
2023/10/13 13:22:15;;;;;;;11.07;3.20;;;18.30;78.40;;;;;;5057480;28;20025;-51
2023/10/13 13:24:44;;;;;;;;;;;17.40;81.20;;;;;;5058050;28;20449;-52
2023/10/13 13:27:13;;;;;;;6.63;1.77;;;16.80;82.70;;;;;;5057726;28;20411;-51
2023/10/13 13:29:42;;;;;;;9.93;2.22;;;16.40;84.70;;;;;;5057639;28;20029;-51
2023/10/13 13:32:18;;;;;;;9.93;2.97;;;15.90;85.80;;;;;;5057560;28;20048;-50
2023/10/13 13:34:45;;;;;;;10.90;1.95;;;15.90;92.20;;;;;;5057483;28;20118;-51
2023/10/13 13:37:12;;;;;;;7.35;1.80;;;16.00;92.50;;;;;;5057156;28;20041;-50
2023/10/13 13:39:44;;;;;;;13.10;2.13;;;15.80;93.90;;;;;;5057638;28;20304;-50
2023/10/13 13:42:10;;;;;;;10.75;2.00;;;15.70;94.00;;;;;;5025144;28;20040;-50
2023/10/13 13:44:36;;;;;;;5.80;1.63;;;15.90;93.30;;;;;;5057062;28;20063;-49
2023/10/13 13:47:14;;;;;;;8.18;2.42;;;16.80;90.70;;;;;;5057050;28;20029;-51
2023/10/13 13:49:40;;;;;;;7.18;2.15;;;16.90;91.50;;;;;;5056233;28;20041;-50
2023/10/13 13:52:09;;;;;;;8.38;2.10;;;16.90;90.90;;;;;;5055799;28;20330;-51
2023/10/13 13:54:35;;;;;;;13.88;2.20;;;16.90;90.80;;;;;;5055954;28;20162;-52
2023/10/13 13:57:01;;;;;;;7.55;1.75;;;16.90;88.30;;;;;;5056550;28;20072;-51
2023/10/13 13:59:33;;;;;;;11.23;2.47;;;17.10;88.40;;;;;;5055921;28;20067;-50
2023/10/13 14:02:00;;;;;;;8.15;1.90;;;18.30;82.30;;;;;;5057305;28;20022;-51
2023/10/13 14:04:31;;;;;;;9.20;2.03;;;19.60;71.50;;;;;;5055744;28;20090;-51
2023/10/13 14:06:56;;;;;;;8.75;1.67;;;20.00;69.10;;;;;;5055572;28;20375;-51
2023/10/13 14:09:44;;;;;;;9.13;2.38;;;20.80;61.90;;;;;;5056988;28;20033;-51
2023/10/13 14:12:29;;;;;;;9.57;3.78;;;21.60;58.70;;;;;;5056230;28;20045;-51
2023/10/13 14:14:56;;;;;;;9.85;2.60;;;21.60;56.80;;;;;;5055717;28;20029;-50
2023/10/13 14:17:35;;;;;;;8.40;2.75;;;20.40;56.10;;;;;;5056744;28;20037;-49
2023/10/13 14:20:08;;;;;;;9.65;2.15;;;20.40;59.40;;;;;;5041073;28;20398;-49
2023/10/13 14:22:36;;;;;;;8.95;2.70;;;20.80;53.60;;;;;;5055488;28;20037;-52
2023/10/13 14:25:08;;;;;;;6.57;2.47;;;21.40;53.40;;;;;;5054734;28;20025;-51
2023/10/13 14:27:35;;;;;;;7.20;2.10;;;21.60;50.90;;;;;;5056170;28;20374;-51
2023/10/13 14:30:02;;;;;;;9.18;2.67;;;20.50;52.20;;;;;;5056564;28;20194;-51
2023/10/13 14:32:28;;;;;;;8.38;2.00;;;21.10;54.40;;;;;;5056536;28;20029;-52
2023/10/13 14:34:54;;;;;;;10.80;2.88;;;21.70;49.60;;;;;;5056108;28;20037;-51
2023/10/13 14:37:41;;;;;;;9.63;2.58;;;21.80;52.00;;;;;;5056044;28;20037;-52
2023/10/13 14:40:21;;;;;;;11.50;2.90;;;20.70;51.90;;;;;;5055758;28;20068;-50
2023/10/13 14:42:49;;;;;;;10.68;2.88;;;19.70;55.60;;;;;;5056040;28;20108;-51
2023/10/13 14:45:18;;;;;;;8.25;2.05;;;19.90;57.60;;;;;;5055675;28;20381;-50
2023/10/13 14:47:44;;;;;;;9.18;2.08;;;19.30;58.80;;;;;;5054924;28;20032;-52
2023/10/13 14:50:19;;;;;;;9.27;2.33;;;19.30;59.40;;;;;;5038353;28;20116;-51
2023/10/13 14:52:46;;;;;;;9.88;1.92;;;19.60;57.30;;;;;;5054876;28;20106;-50
2023/10/13 14:55:21;;;;;;;12.77;2.83;;;20.00;53.70;;;;;;5055660;28;20029;-51
2023/10/13 14:57:50;;;;;;;10.38;2.28;;;20.30;56.30;;;;;;5055107;28;20028;-51
2023/10/13 15:00:24;;;;;;;6.97;2.00;;;20.00;57.00;;;;;;5055450;28;20033;-52
2023/10/13 15:02:54;;;;;;;8.40;1.70;;;19.20;64.50;;;;;;5055648;28;20353;-51
2023/10/13 15:05:19;;;;;;;12.15;2.65;;;19.10;63.40;;;;;;5054472;28;20086;-52
2023/10/13 15:07:45;;;;;;;9.15;2.10;;;18.30;63.90;;;;;;5055279;28;20033;-52
2023/10/13 15:10:14;;;;;;;10.10;2.75;;;17.50;70.40;;;;;;5055850;28;20044;-51
2023/10/13 15:12:48;;;;;;;9.45;1.83;;;17.30;79.10;;;;;;5055506;28;20420;-51
2023/10/13 15:15:15;;;;;;;5.90;1.80;;;18.40;72.30;;;;;;5055463;28;20447;-51
2023/10/13 15:17:45;;;;;;;8.25;2.28;;;18.90;67.80;;;;;;5055773;28;20053;-51
2023/10/13 15:20:15;;;;;;;6.65;2.67;;;19.10;65.70;;;;;;5055952;28;20088;-50
2023/10/13 15:22:44;;;;;;;6.60;2.05;;;18.60;65.40;;;;;;5055620;28;20029;-48
2023/10/13 15:25:28;;;;;;;7.20;2.10;;;17.50;67.00;;;;;;5055567;28;20045;-50
2023/10/13 15:28:05;;;;;;;7.20;1.98;;;16.80;73.60;;;;;;5055631;28;20265;-51
2023/10/13 15:30:44;;;;;;;10.60;2.35;;;16.30;79.30;;;;;;5054415;28;20033;-50
2023/10/13 15:33:13;;;;;;;8.63;2.47;;;16.10;85.00;;;;;;5054785;28;20071;-51
2023/10/13 15:35:42;;;;;;;8.02;2.00;;;16.30;86.00;;;;;;5055189;28;20035;-52
2023/10/13 15:38:09;;;;;;;7.63;1.85;;;16.60;83.60;;;;;;5055379;28;20029;-51
2023/10/13 15:40:43;;;;;;;6.10;1.95;;;16.50;83.10;;;;;;5054061;28;20081;-52
2023/10/13 15:43:09;;;;;;;8.90;2.22;;;17.20;80.70;;;;;;5055003;28;20406;-51
2023/10/13 15:45:42;;;;;;;8.00;2.50;;;18.00;74.30;;;;;;5053982;28;20021;-50
2023/10/13 15:48:10;;;;;;;14.02;2.85;;;18.60;69.40;;;;;;5055127;28;20108;-51
2023/10/13 15:50:39;;;;;;;12.25;2.17;;;18.80;67.40;;;;;;5053643;28;20047;-51
2023/10/13 15:53:06;;;;;;;12.38;2.08;;;18.90;65.80;;;;;;5055033;28;20029;-51
2023/10/13 15:55:37;;;;;;;11.60;2.60;;;18.80;64.30;;;;;;5054830;28;20025;-50
2023/10/13 15:58:07;;;;;;;14.15;3.53;;;18.00;68.90;;;;;;5053371;28;20415;-50
2023/10/13 16:00:35;;;;;;;8.52;2.92;;;17.20;73.30;;;;;;5053351;28;20120;-51
2023/10/13 16:03:00;;;;;;;10.02;3.03;;;17.30;71.90;;;;;;5054772;28;20098;-51
2023/10/13 16:05:34;;;;;;;9.65;2.83;;;17.50;69.90;;;;;;5054384;28;20466;-51
2023/10/13 16:07:59;;;;;;;11.02;3.42;;;17.20;71.40;;;;;;5054835;28;20095;-47
2023/10/13 16:10:26;;;;;;;10.07;2.85;;;16.60;74.80;;;;;;5053540;28;20399;-50
2023/10/13 16:12:53;;;;;;;11.52;3.90;;;16.00;80.20;;;;;;5054823;28;20415;-50
2023/10/13 16:15:21;;;;;;;11.25;2.22;;;15.50;82.50;;;;;;5054442;28;20033;-51
2023/10/13 16:17:53;;;;;;;15.32;2.85;;;15.10;85.00;;;;;;5053318;28;20103;-50
2023/10/13 16:20:20;;;;;;;10.35;3.22;;;14.80;89.00;;;;;;5054190;28;20032;-49
2023/10/13 16:22:47;;;;;;;11.45;4.38;;;14.60;91.10;;;;;;5054116;28;20056;-48
2023/10/13 16:25:13;;;;;;;10.10;3.30;;;14.50;92.60;;;;;;5054435;28;20032;-49
2023/10/13 16:27:41;;;;;;;14.60;2.83;;;14.40;91.70;;;;;;5053151;28;20041;-50
2023/10/13 16:30:19;;;;;;;11.25;2.35;;;14.30;92.60;;;;;;5053897;28;20044;-53
2023/10/13 16:32:49;;;;;;;13.07;4.70;;;14.10;92.60;;;;;;5054196;28;20458;-48
2023/10/13 16:35:18;;;;;;;13.85;2.50;;;14.00;94.70;;;;;;5054627;28;20037;-50
2023/10/13 16:37:50;;;;;;;11.50;2.35;;;14.00;95.70;;;;;;5054521;28;20531;-50
2023/10/13 16:40:19;;;;;;;10.55;2.67;;;13.80;95.80;;;;;;5054264;28;20033;-48
2023/10/13 16:42:49;;;;;;;12.27;2.63;;;13.70;96.20;;;;;;5054230;28;20458;-51
2023/10/13 16:45:14;;;;;;;10.82;2.30;;;13.60;96.90;;;;;;5054286;28;20419;-47
2023/10/13 16:47:44;;;;;;;11.60;2.13;;;13.50;98.00;;;;;;5053959;28;20052;-49
2023/10/13 16:50:10;;;;;;;11.27;3.43;;;13.40;97.30;;;;;;5054563;28;20109;-47
2023/10/13 16:52:36;;;;;;;13.25;4.00;;;13.30;97.20;;;;;;5054034;28;20033;-50
2023/10/13 16:55:03;;;;;;;14.88;3.40;;;13.20;98.40;;;;;;5054414;28;20029;-49
2023/10/13 16:57:29;;;;;;;14.30;3.70;;;13.10;99.80;;;;;;5054242;28;20025;-46
2023/10/13 16:59:54;;;;;;;11.45;3.50;;;13.00;99.90;;;;;;5054230;28;20025;-49
2023/10/13 17:02:21;;;;;;;16.80;3.92;;;13.00;99.90;;;;;;5054250;28;20051;-50